Time;durP1;ratioP1;P1;durP2;ratioP2;P2;SDS_P1;SDS_P2;PMS_P1;PMS_P2;Temp;Humidity;BMP_temperature;BMP_pressure;BME280_temperature;BME280_humidity;BME280_pressure;Samples;Min_cycle;Max_cycle;Signal;HPM_P1;HPM_P2
2022/07/08 00:00:35;;;;;;;9.98;2.63;;;14.50;99.90;;;;;;4911250;29;20059;-65
2022/07/08 00:03:01;;;;;;;7.32;2.67;;;14.40;99.90;;;;;;4890958;29;20041;-65
2022/07/08 00:05:26;;;;;;;10.10;2.53;;;14.40;99.90;;;;;;4890294;29;20037;-65
2022/07/08 00:07:52;;;;;;;8.85;2.55;;;14.40;99.90;;;;;;4914499;29;20440;-65
2022/07/08 00:10:18;;;;;;;9.27;2.70;;;14.30;99.90;;;;;;4914695;29;20059;-65
2022/07/08 00:12:44;;;;;;;9.82;2.63;;;14.40;99.90;;;;;;4907821;29;20493;-65
2022/07/08 00:15:10;;;;;;;5.47;2.53;;;14.30;99.90;;;;;;4882623;29;20069;-65
2022/07/08 00:17:37;;;;;;;9.63;2.78;;;14.30;99.90;;;;;;4911740;29;20051;-65
2022/07/08 00:20:04;;;;;;;10.43;4.40;;;14.30;99.90;;;;;;4901027;29;20245;-65
2022/07/08 00:22:30;;;;;;;9.63;2.65;;;14.30;99.90;;;;;;4879817;29;20144;-65
2022/07/08 00:24:56;;;;;;;12.27;2.50;;;14.20;99.90;;;;;;4914501;29;20143;-65
2022/07/08 00:27:21;;;;;;;12.95;3.17;;;14.20;99.90;;;;;;4914793;29;20076;-65
2022/07/08 00:29:47;;;;;;;12.80;2.90;;;14.20;99.90;;;;;;4892167;29;20119;-65
2022/07/08 00:32:13;;;;;;;10.93;2.60;;;14.10;99.90;;;;;;4891345;29;20185;-65
2022/07/08 00:34:39;;;;;;;7.78;2.63;;;14.10;99.90;;;;;;4914453;29;20048;-65
2022/07/08 00:37:05;;;;;;;10.10;2.53;;;14.10;99.90;;;;;;4886558;29;20049;-65
2022/07/08 00:39:31;;;;;;;10.32;3.10;;;14.00;99.90;;;;;;4909507;29;20127;-65
2022/07/08 00:41:56;;;;;;;6.78;2.58;;;14.00;99.90;;;;;;4917933;29;20568;-65
2022/07/08 00:44:22;;;;;;;10.10;2.67;;;13.90;99.90;;;;;;4918028;29;20039;-65
2022/07/08 00:46:47;;;;;;;9.82;3.03;;;13.80;99.90;;;;;;4895990;29;20119;-65
2022/07/08 00:49:13;;;;;;;13.60;2.63;;;13.80;99.90;;;;;;4898385;29;20135;-65
2022/07/08 00:51:40;;;;;;;10.93;2.70;;;13.70;99.90;;;;;;4917063;29;20044;-65
2022/07/08 00:54:06;;;;;;;9.73;2.92;;;13.70;99.90;;;;;;4900810;29;20493;-65
2022/07/08 00:56:32;;;;;;;9.32;3.10;;;13.70;99.90;;;;;;4906714;29;20048;-65
2022/07/08 00:58:58;;;;;;;11.68;3.00;;;13.70;99.90;;;;;;4917597;29;20047;-65
2022/07/08 01:01:23;;;;;;;10.57;3.00;;;13.60;99.90;;;;;;4904520;29;20073;-65
2022/07/08 01:03:49;;;;;;;8.48;3.05;;;13.60;99.90;;;;;;4903246;29;20111;-65
2022/07/08 01:06:15;;;;;;;8.63;2.80;;;13.50;99.90;;;;;;4916965;29;20175;-65
2022/07/08 01:08:42;;;;;;;9.90;3.25;;;13.50;99.90;;;;;;4917871;29;20158;-65
2022/07/08 01:11:08;;;;;;;11.13;3.00;;;13.50;99.90;;;;;;4888355;29;20121;-65
2022/07/08 01:13:35;;;;;;;12.52;3.53;;;13.50;99.90;;;;;;4899625;29;20080;-65
2022/07/08 01:16:01;;;;;;;12.40;3.25;;;13.50;99.90;;;;;;4917097;29;20504;-65
2022/07/08 01:18:29;;;;;;;13.77;3.58;;;13.50;99.90;;;;;;4906937;29;20123;-65
2022/07/08 01:20:56;;;;;;;12.65;3.55;;;13.50;99.90;;;;;;4900871;29;20512;-65
2022/07/08 01:23:22;;;;;;;10.40;3.40;;;13.50;99.90;;;;;;4916972;29;20536;-65
2022/07/08 01:25:48;;;;;;;11.60;3.65;;;13.40;99.90;;;;;;4917295;29;20148;-65
2022/07/08 01:28:15;;;;;;;17.33;3.42;;;13.40;99.90;;;;;;4877892;29;20123;-65
2022/07/08 01:30:42;;;;;;;7.80;3.38;;;13.40;99.90;;;;;;4915551;29;20059;-65
2022/07/08 01:33:08;;;;;;;11.10;3.30;;;13.40;99.90;;;;;;4916688;29;20055;-65
2022/07/08 01:35:33;;;;;;;13.05;3.40;;;13.30;99.90;;;;;;4893903;29;20501;-65
2022/07/08 01:37:59;;;;;;;11.50;4.00;;;13.30;99.90;;;;;;4910825;29;20413;-65
2022/07/08 01:40:25;;;;;;;8.85;3.20;;;13.30;99.90;;;;;;4917181;29;20040;-65
2022/07/08 01:42:50;;;;;;;12.65;3.40;;;13.20;99.90;;;;;;4911805;29;20048;-65
2022/07/08 01:45:16;;;;;;;10.55;3.17;;;13.20;99.90;;;;;;4895984;29;20044;-65
2022/07/08 01:47:42;;;;;;;10.07;3.42;;;13.20;99.90;;;;;;4915399;29;20048;-65
2022/07/08 01:50:09;;;;;;;8.82;3.45;;;13.20;99.90;;;;;;4916359;29;20481;-65
2022/07/08 01:52:35;;;;;;;8.60;3.10;;;13.20;99.90;;;;;;4896895;29;20048;-65
2022/07/08 01:55:00;;;;;;;7.28;3.28;;;13.20;99.90;;;;;;4907198;29;20419;-65
2022/07/08 01:57:26;;;;;;;10.95;3.40;;;13.20;99.90;;;;;;4916629;29;20046;-65
2022/07/08 01:59:52;;;;;;;12.40;3.30;;;13.20;99.90;;;;;;4906611;29;20044;-65
2022/07/08 02:02:20;;;;;;;11.68;3.30;;;13.30;99.90;;;;;;4886354;29;20048;-65
2022/07/08 02:04:46;;;;;;;10.52;3.30;;;13.20;99.90;;;;;;4900432;29;20404;-65
2022/07/08 02:07:12;;;;;;;8.88;3.60;;;13.30;99.90;;;;;;4916777;29;20044;-65
2022/07/08 02:09:38;;;;;;;9.70;3.60;;;13.20;99.90;;;;;;4904347;29;20044;-65
2022/07/08 02:12:21;;;;;;;12.27;3.88;;;13.20;99.90;;;;;;4896447;29;20076;-65
2022/07/08 02:15:03;;;;;;;9.60;3.50;;;13.20;99.90;;;;;;4900692;29;20493;-65
2022/07/08 02:17:32;;;;;;;10.07;3.17;;;13.10;99.90;;;;;;4895811;29;20045;-65
2022/07/08 02:19:59;;;;;;;10.13;3.55;;;13.10;99.90;;;;;;4912538;29;20032;-65
2022/07/08 02:22:24;;;;;;;8.70;3.45;;;13.10;99.90;;;;;;4915948;29;20115;-65
2022/07/08 02:24:51;;;;;;;11.45;3.30;;;13.10;99.90;;;;;;4916447;29;20159;-65
2022/07/08 02:27:17;;;;;;;12.68;3.80;;;13.10;99.90;;;;;;4903502;29;20037;-65
2022/07/08 02:29:43;;;;;;;7.53;3.10;;;13.00;99.90;;;;;;4911296;29;20115;-65
2022/07/08 02:32:09;;;;;;;7.00;3.03;;;13.00;99.90;;;;;;4915647;29;20050;-65
2022/07/08 02:34:35;;;;;;;12.30;3.40;;;12.90;99.90;;;;;;4894730;29;20494;-65
2022/07/08 02:37:00;;;;;;;8.55;3.28;;;12.90;99.90;;;;;;4906777;29;20043;-65
2022/07/08 02:39:26;;;;;;;11.02;3.58;;;12.80;99.90;;;;;;4915963;29;20040;-65
2022/07/08 02:41:52;;;;;;;8.88;3.50;;;12.80;99.90;;;;;;4900787;29;20069;-65
2022/07/08 02:44:18;;;;;;;10.20;3.30;;;12.70;99.90;;;;;;4902294;29;20051;-65
2022/07/08 02:46:45;;;;;;;12.13;3.67;;;12.70;99.90;;;;;;4915557;29;20047;-65
2022/07/08 02:49:11;;;;;;;9.63;3.45;;;12.70;99.90;;;;;;4915969;29;20040;-65
2022/07/08 02:51:37;;;;;;;11.23;3.42;;;12.70;99.90;;;;;;4870064;29;20048;-65
2022/07/08 02:54:05;;;;;;;14.50;3.72;;;12.60;99.90;;;;;;4904236;29;20135;-65
2022/07/08 02:56:32;;;;;;;12.75;3.45;;;12.60;99.90;;;;;;4915516;29;20040;-65
2022/07/08 02:58:58;;;;;;;11.88;4.18;;;12.60;99.90;;;;;;4910966;29;20040;-65
2022/07/08 03:01:24;;;;;;;10.82;3.60;;;12.50;99.90;;;;;;4892905;29;20080;-65
2022/07/08 03:03:50;;;;;;;11.13;3.45;;;12.50;99.90;;;;;;4915246;29;20068;-65
2022/07/08 03:06:16;;;;;;;11.30;3.60;;;12.50;99.90;;;;;;4909178;29;20534;-65
2022/07/08 03:08:42;;;;;;;11.05;3.40;;;12.50;99.90;;;;;;4897465;29;20071;-65
2022/07/08 03:11:08;;;;;;;10.75;3.60;;;12.50;99.90;;;;;;4914857;29;20126;-65
2022/07/08 03:13:35;;;;;;;12.45;3.67;;;12.50;99.90;;;;;;4915163;29;20051;-65
2022/07/08 03:16:01;;;;;;;6.45;3.08;;;12.40;99.90;;;;;;4896755;29;20454;-65
2022/07/08 03:18:27;;;;;;;10.02;3.60;;;12.40;99.90;;;;;;4907206;29;20040;-65
2022/07/08 03:20:53;;;;;;;7.30;3.03;;;12.40;99.90;;;;;;4915082;29;20192;-65
2022/07/08 03:23:18;;;;;;;9.25;3.47;;;12.30;99.90;;;;;;4903076;29;20037;-65
2022/07/08 03:25:44;;;;;;;12.48;3.65;;;12.30;99.90;;;;;;4896399;29;20460;-65
2022/07/08 03:28:09;;;;;;;7.47;3.10;;;12.30;99.90;;;;;;4914655;29;20048;-65
2022/07/08 03:30:35;;;;;;;9.55;3.40;;;12.40;99.90;;;;;;4903063;29;20036;-65
2022/07/08 03:33:01;;;;;;;7.78;3.35;;;12.30;99.90;;;;;;4899729;29;20024;-65
2022/07/08 03:35:26;;;;;;;6.45;3.38;;;12.30;99.90;;;;;;4914776;29;20496;-65
2022/07/08 03:37:52;;;;;;;9.50;3.88;;;12.30;99.90;;;;;;4898214;29;20048;-65
2022/07/08 03:43:02;;;;;;;11.23;3.42;;;12.30;99.90;;;;;;4885651;29;20044;-65
2022/07/08 03:45:27;;;;;;;9.95;4.00;;;12.20;99.90;;;;;;4891442;29;20047;-65
2022/07/08 03:47:53;;;;;;;9.48;3.63;;;12.20;99.90;;;;;;4900587;29;20628;-65
2022/07/08 03:50:19;;;;;;;8.25;3.60;;;12.20;99.90;;;;;;4911141;29;20088;-65
2022/07/08 03:52:45;;;;;;;9.90;3.15;;;12.10;99.90;;;;;;4914592;29;20040;-65
2022/07/08 03:55:11;;;;;;;10.07;3.78;;;12.10;99.90;;;;;;4893725;29;20063;-65
2022/07/08 03:57:37;;;;;;;7.55;3.33;;;12.10;99.90;;;;;;4890278;29;20482;-65
2022/07/08 04:00:06;;;;;;;11.75;3.40;;;12.10;99.90;;;;;;4913154;29;20115;-65
2022/07/08 04:02:32;;;;;;;14.85;3.80;;;12.20;99.90;;;;;;4898538;29;20032;-65
2022/07/08 04:04:58;;;;;;;8.45;3.40;;;12.20;99.90;;;;;;4890206;29;20594;-65
2022/07/08 04:07:23;;;;;;;7.68;3.17;;;12.20;99.90;;;;;;4895973;29;20048;-65
2022/07/08 04:09:49;;;;;;;10.90;3.70;;;12.20;99.90;;;;;;4912687;29;20115;-65
2022/07/08 04:12:15;;;;;;;11.85;3.50;;;12.20;99.90;;;;;;4913267;29;20056;-65
2022/07/08 04:14:40;;;;;;;9.40;3.70;;;12.30;99.90;;;;;;4897740;29;20071;-65
2022/07/08 04:17:06;;;;;;;10.50;3.58;;;12.30;99.90;;;;;;4908618;29;20044;-65
2022/07/08 04:19:31;;;;;;;11.35;3.47;;;12.40;99.90;;;;;;4901666;29;20065;-65
2022/07/08 04:21:57;;;;;;;11.10;3.50;;;12.40;99.90;;;;;;4915468;29;20028;-65
2022/07/08 04:24:22;;;;;;;11.27;3.60;;;12.40;99.90;;;;;;4917952;29;20485;-65
2022/07/08 04:26:48;;;;;;;10.43;4.03;;;12.50;99.90;;;;;;4918378;29;20044;-65
2022/07/08 04:29:14;;;;;;;8.57;3.55;;;12.50;99.90;;;;;;4899954;29;20177;-65
2022/07/08 04:31:39;;;;;;;17.15;4.00;;;12.60;99.90;;;;;;4886770;29;20037;-65
2022/07/08 04:34:05;;;;;;;9.35;3.47;;;12.70;99.90;;;;;;4916490;29;20104;-65
2022/07/08 04:36:31;;;;;;;11.40;3.60;;;12.70;99.90;;;;;;4891515;29;20052;-65
2022/07/08 04:38:56;;;;;;;9.65;3.75;;;12.80;99.90;;;;;;4910986;29;20039;-65
2022/07/08 04:41:22;;;;;;;9.35;3.40;;;12.90;99.90;;;;;;4904040;29;20481;-65
2022/07/08 04:43:48;;;;;;;9.85;3.30;;;13.00;99.90;;;;;;4888243;29;20124;-65
2022/07/08 04:46:14;;;;;;;7.55;3.40;;;13.00;99.90;;;;;;4896449;29;20040;-65
2022/07/08 04:48:41;;;;;;;12.38;3.50;;;13.10;99.90;;;;;;4889484;29;20045;-65
2022/07/08 04:51:07;;;;;;;12.52;4.18;;;13.10;99.90;;;;;;4917312;29;20055;-65
2022/07/08 04:53:33;;;;;;;10.02;3.60;;;13.10;99.90;;;;;;4917612;29;20096;-65
2022/07/08 04:55:59;;;;;;;14.85;3.30;;;13.10;99.90;;;;;;4904174;29;20041;-65
2022/07/08 04:58:24;;;;;;;11.25;3.60;;;13.10;99.90;;;;;;4897862;29;20048;-65
2022/07/08 05:00:50;;;;;;;10.23;3.50;;;13.10;99.90;;;;;;4897542;29;20032;-65
2022/07/08 05:03:15;;;;;;;12.25;3.80;;;13.10;99.90;;;;;;4892701;29;20052;-65
2022/07/08 05:05:41;;;;;;;15.77;3.58;;;13.20;99.90;;;;;;4889729;29;20078;-65
2022/07/08 05:08:07;;;;;;;13.93;3.85;;;13.20;99.90;;;;;;4914210;29;20043;-65
2022/07/08 05:10:33;;;;;;;7.43;3.22;;;13.30;99.90;;;;;;4914898;29;20055;-65
2022/07/08 05:12:59;;;;;;;16.27;3.70;;;13.30;99.90;;;;;;4904272;29;20401;-68
2022/07/08 05:15:25;;;;;;;12.50;3.85;;;13.40;99.90;;;;;;4878588;29;20052;-65
2022/07/08 05:17:52;;;;;;;10.70;4.40;;;13.50;99.90;;;;;;4913844;29;20075;-65
2022/07/08 05:20:18;;;;;;;11.77;3.78;;;13.60;99.90;;;;;;4899503;29;20080;-65
2022/07/08 05:22:44;;;;;;;9.68;3.28;;;13.70;99.90;;;;;;4886647;29;20424;-66
2022/07/08 05:25:10;;;;;;;8.35;3.67;;;13.70;99.90;;;;;;4915875;29;20044;-65
2022/07/08 05:27:37;;;;;;;12.60;3.65;;;13.80;99.90;;;;;;4908148;29;20115;-65
2022/07/08 05:30:04;;;;;;;14.93;3.70;;;13.90;99.90;;;;;;4901976;29;20040;-65
2022/07/08 05:32:30;;;;;;;8.85;3.45;;;14.00;99.90;;;;;;4916565;29;20054;-65
2022/07/08 05:34:55;;;;;;;11.40;3.28;;;14.20;99.90;;;;;;4916932;29;20048;-65
2022/07/08 05:37:21;;;;;;;10.05;3.22;;;14.30;99.90;;;;;;4904091;29;20037;-65
2022/07/08 05:39:47;;;;;;;10.10;3.58;;;14.60;99.90;;;;;;4913661;29;20113;-65
2022/07/08 05:42:12;;;;;;;9.40;2.92;;;14.70;99.90;;;;;;4916219;29;20551;-65
2022/07/08 05:44:39;;;;;;;7.35;3.03;;;14.90;99.90;;;;;;4917059;29;20083;-65
2022/07/08 05:47:07;;;;;;;9.27;3.10;;;15.00;99.90;;;;;;4883251;29;20055;-65
2022/07/08 05:49:33;;;;;;;11.77;2.67;;;15.10;99.90;;;;;;4911026;29;20050;-65
2022/07/08 05:51:59;;;;;;;13.00;2.80;;;15.20;99.90;;;;;;4913493;29;20084;-65
2022/07/08 05:54:24;;;;;;;9.73;2.90;;;15.20;99.90;;;;;;4883535;29;20136;-65
2022/07/08 05:56:50;;;;;;;15.63;2.80;;;15.30;99.90;;;;;;4910236;29;20036;-65
2022/07/08 05:59:15;;;;;;;17.17;3.55;;;15.40;99.90;;;;;;4912193;29;20147;-65
2022/07/08 06:01:41;;;;;;;8.32;2.78;;;15.40;99.90;;;;;;4902749;29;20497;-65
2022/07/08 06:04:07;;;;;;;9.63;2.75;;;15.50;99.90;;;;;;4885227;29;20041;-66
2022/07/08 06:06:32;;;;;;;8.90;3.00;;;15.50;99.90;;;;;;4904831;29;20130;-65
2022/07/08 06:08:58;;;;;;;9.23;2.88;;;15.50;99.90;;;;;;4883644;29;20044;-65
2022/07/08 06:11:24;;;;;;;13.75;2.90;;;15.60;99.90;;;;;;4882629;29;20100;-65
2022/07/08 06:13:50;;;;;;;11.77;2.80;;;15.70;99.90;;;;;;4901658;29;20494;-65
2022/07/08 06:16:15;;;;;;;8.23;3.10;;;15.70;99.90;;;;;;4915787;29;20040;-65
2022/07/08 06:18:41;;;;;;;11.05;2.90;;;15.70;99.90;;;;;;4906765;29;20048;-65
2022/07/08 06:21:07;;;;;;;16.23;3.28;;;15.70;99.90;;;;;;4908426;29;20044;-65
2022/07/08 06:23:34;;;;;;;12.48;2.80;;;15.80;99.90;;;;;;4915699;29;20036;-65
2022/07/08 06:26:00;;;;;;;9.70;2.90;;;15.80;99.90;;;;;;4915970;29;20048;-66
2022/07/08 06:28:26;;;;;;;11.68;2.65;;;15.90;99.90;;;;;;4897440;29;20040;-65
2022/07/08 06:30:52;;;;;;;9.88;2.95;;;15.80;99.90;;;;;;4915249;29;20433;-65
2022/07/08 06:33:17;;;;;;;12.80;3.15;;;15.80;99.90;;;;;;4915703;29;20409;-65
2022/07/08 06:35:43;;;;;;;9.70;2.92;;;15.70;99.90;;;;;;4898689;29;20683;-65
2022/07/08 06:38:09;;;;;;;14.32;2.72;;;15.80;99.90;;;;;;4907616;29;20394;-66
2022/07/08 06:40:34;;;;;;;10.90;3.03;;;15.90;99.90;;;;;;4915690;29;20192;-66
2022/07/08 06:43:00;;;;;;;10.90;2.97;;;16.00;99.90;;;;;;4906431;29;20036;-65
2022/07/08 06:45:26;;;;;;;9.80;2.47;;;16.20;99.90;;;;;;4895049;29;20089;-65
2022/07/08 06:47:51;;;;;;;11.07;3.03;;;16.30;99.90;;;;;;4914927;29;20516;-65
2022/07/08 06:50:17;;;;;;;10.82;2.72;;;16.40;99.90;;;;;;4915596;29;20048;-65
2022/07/08 06:52:43;;;;;;;13.20;2.95;;;16.50;99.90;;;;;;4905895;29;20074;-65
2022/07/08 06:55:09;;;;;;;11.48;2.95;;;16.50;99.90;;;;;;4896325;29;20065;-65
2022/07/08 06:57:34;;;;;;;9.68;2.60;;;16.70;99.90;;;;;;4915319;29;20052;-65
2022/07/08 07:00:00;;;;;;;7.72;2.78;;;16.70;99.90;;;;;;4903037;29;20397;-65
2022/07/08 07:02:26;;;;;;;12.30;2.88;;;16.80;99.90;;;;;;4895110;29;20036;-65
2022/07/08 07:04:52;;;;;;;8.95;2.63;;;17.00;99.90;;;;;;4915046;29;20047;-66
2022/07/08 07:07:17;;;;;;;14.55;2.70;;;17.00;99.90;;;;;;4915507;29;20437;-66
2022/07/08 07:09:43;;;;;;;9.05;2.50;;;17.10;99.90;;;;;;4889555;29;20106;-66
2022/07/08 07:12:09;;;;;;;9.63;2.53;;;17.20;99.90;;;;;;4908360;29;20556;-66
2022/07/08 07:14:35;;;;;;;10.73;2.50;;;17.20;99.90;;;;;;4913859;29;20040;-65
2022/07/08 07:17:02;;;;;;;7.13;2.30;;;17.30;99.90;;;;;;4903641;29;20083;-65
2022/07/08 07:19:28;;;;;;;7.70;2.42;;;17.30;99.90;;;;;;4908220;29;20083;-65
2022/07/08 07:21:54;;;;;;;6.15;2.20;;;17.30;99.90;;;;;;4914912;29;20095;-65
2022/07/08 07:24:20;;;;;;;7.32;2.10;;;17.30;99.90;;;;;;4915192;29;20043;-66
2022/07/08 07:26:46;;;;;;;9.10;2.17;;;17.30;99.90;;;;;;4888062;29;20044;-66
2022/07/08 07:29:12;;;;;;;9.07;2.38;;;17.30;99.90;;;;;;4905964;29;20049;-65
2022/07/08 07:31:38;;;;;;;11.20;2.50;;;17.40;99.90;;;;;;4914473;29;20243;-66
2022/07/08 07:34:03;;;;;;;11.48;2.20;;;17.40;99.90;;;;;;4890690;29;20036;-66
2022/07/08 07:44:19;;;;;;;10.55;2.50;;;17.80;99.90;;;;;;5557088;23;20030;-65
2022/07/08 08:52:51;;;;;;;7.60;2.80;;;18.50;99.90;;;;;;4878470;29;20462;-65
2022/07/08 08:55:27;;;;;;;7.93;2.63;;;18.50;99.90;;;;;;4882717;29;20047;-65
2022/07/08 08:57:56;;;;;;;8.40;2.60;;;18.60;99.90;;;;;;4886543;29;20082;-65
2022/07/08 09:00:22;;;;;;;6.60;2.38;;;18.90;99.90;;;;;;4895209;29;20044;-65
2022/07/08 09:02:48;;;;;;;10.75;2.97;;;19.10;99.90;;;;;;4914165;29;20481;-65
2022/07/08 09:05:15;;;;;;;9.63;2.70;;;19.30;99.90;;;;;;4923893;23;20096;-66
2022/07/08 09:07:41;;;;;;;5.80;2.70;;;19.40;99.90;;;;;;4911194;29;20048;-68
2022/07/08 09:10:07;;;;;;;7.13;2.55;;;19.40;99.90;;;;;;4911989;29;20036;-67
2022/07/08 09:12:33;;;;;;;6.63;2.35;;;19.60;99.90;;;;;;4916046;29;20405;-65
2022/07/08 09:15:00;;;;;;;8.93;3.08;;;19.70;99.90;;;;;;4904642;29;20527;-65
2022/07/08 09:17:26;;;;;;;9.35;3.00;;;19.80;99.90;;;;;;4913880;29;20075;-67
2022/07/08 09:19:52;;;;;;;7.80;2.88;;;20.00;99.90;;;;;;4915535;29;20079;-66
2022/07/08 09:22:22;;;;;;;11.93;3.13;;;20.10;99.90;;;;;;4909357;29;20467;-66
2022/07/08 09:24:48;;;;;;;11.07;3.00;;;20.10;99.90;;;;;;4896674;29;20492;-67
2022/07/08 09:27:14;;;;;;;8.90;3.00;;;20.00;99.90;;;;;;4901704;29;20040;-66
2022/07/08 09:29:59;;;;;;;12.68;3.08;;;20.10;99.90;;;;;;4910405;29;20028;-66
2022/07/08 09:32:25;;;;;;;12.43;3.03;;;20.10;99.90;;;;;;4907025;29;20092;-66
2022/07/08 09:34:50;;;;;;;11.40;2.80;;;19.90;99.90;;;;;;4913998;29;20678;-67
2022/07/08 09:37:18;;;;;;;8.98;3.20;;;19.90;99.90;;;;;;4915903;29;20124;-67
2022/07/08 09:39:45;;;;;;;8.13;2.60;;;19.80;99.90;;;;;;4902515;29;20131;-67
2022/07/08 09:42:13;;;;;;;10.48;2.88;;;19.80;99.90;;;;;;4913995;29;20043;-67
2022/07/08 09:44:40;;;;;;;6.82;2.75;;;19.80;99.90;;;;;;4915385;29;20465;-67
2022/07/08 09:47:13;;;;;;;9.23;2.90;;;19.60;99.90;;;;;;4912051;29;20051;-67
2022/07/08 09:49:41;;;;;;;13.73;2.95;;;19.70;99.90;;;;;;4900671;29;20044;-64
2022/07/08 09:52:08;;;;;;;7.90;2.70;;;19.70;99.90;;;;;;4910211;29;20558;-68
2022/07/08 09:54:33;;;;;;;7.93;2.70;;;19.70;99.90;;;;;;4907788;29;20046;-67
2022/07/08 09:57:01;;;;;;;7.85;2.78;;;19.80;99.90;;;;;;4899943;29;20035;-68
2022/07/08 09:59:28;;;;;;;9.10;3.20;;;19.90;99.90;;;;;;4911141;29;20055;-66
2022/07/08 10:01:54;;;;;;;6.30;2.70;;;19.90;99.90;;;;;;4903839;29;20047;-67
2022/07/08 10:04:22;;;;;;;5.60;2.70;;;20.00;99.90;;;;;;4910759;29;20075;-65
2022/07/08 10:06:48;;;;;;;7.25;3.00;;;20.10;99.90;;;;;;4911275;29;20160;-66
2022/07/08 10:09:14;;;;;;;7.85;3.10;;;20.10;99.90;;;;;;4905061;29;20194;-66
2022/07/08 10:11:41;;;;;;;7.85;2.85;;;20.00;99.90;;;;;;4913445;29;20469;-66
2022/07/08 10:14:08;;;;;;;9.20;3.08;;;19.90;99.90;;;;;;4907358;29;20516;-67
2022/07/08 10:16:35;;;;;;;9.75;3.13;;;19.80;99.90;;;;;;4916508;29;20044;-67
2022/07/08 10:19:03;;;;;;;12.02;3.72;;;19.80;99.90;;;;;;4913555;29;20134;-67
2022/07/08 10:21:30;;;;;;;9.10;3.10;;;19.70;99.90;;;;;;4907702;29;20496;-67
2022/07/08 10:23:56;;;;;;;7.15;3.00;;;19.70;99.90;;;;;;4909856;29;20049;-65
2022/07/08 10:26:28;;;;;;;12.48;3.13;;;19.70;99.90;;;;;;4910027;29;20071;-65
2022/07/08 10:29:03;;;;;;;10.10;3.08;;;19.90;99.90;;;;;;4909834;29;20528;-67
2022/07/08 10:31:29;;;;;;;7.72;2.80;;;20.00;99.90;;;;;;4913084;29;20099;-67
2022/07/08 10:34:00;;;;;;;9.23;2.85;;;20.00;99.90;;;;;;4903958;29;20058;-67
2022/07/08 10:36:25;;;;;;;7.80;2.73;;;20.20;99.90;;;;;;4900207;29;20049;-67
2022/07/08 10:38:54;;;;;;;6.25;2.60;;;20.50;99.90;;;;;;4910976;29;20127;-66
2022/07/08 10:41:21;;;;;;;10.52;2.80;;;20.80;99.90;;;;;;4912878;29;20123;-66
2022/07/08 10:43:51;;;;;;;7.63;2.33;;;20.90;99.90;;;;;;4901528;29;20638;-67
2022/07/08 10:46:19;;;;;;;7.97;2.85;;;21.20;99.90;;;;;;4917143;29;20641;-68
2022/07/08 10:48:44;;;;;;;8.23;2.70;;;21.30;99.90;;;;;;4911247;29;20520;-67
2022/07/08 10:51:25;;;;;;;8.73;2.80;;;21.30;99.90;;;;;;4899171;29;20052;-66
2022/07/08 10:53:51;;;;;;;8.10;2.58;;;21.20;99.90;;;;;;4900733;29;20572;-67
2022/07/08 10:56:53;;;;;;;5.30;2.70;;;21.10;99.90;;;;;;4913982;29;20127;-67
2022/07/08 10:59:28;;;;;;;9.52;3.15;;;21.20;99.90;;;;;;4910885;29;20393;-67
2022/07/08 11:02:01;;;;;;;6.57;2.85;;;21.40;99.90;;;;;;4904924;29;20501;-67
2022/07/08 11:04:36;;;;;;;5.30;2.45;;;21.70;99.90;;;;;;4910882;29;20122;-65
2022/07/08 11:07:24;;;;;;;8.63;3.03;;;21.80;99.90;;;;;;4908500;29;20043;-65
2022/07/08 11:10:06;;;;;;;11.15;2.60;;;21.90;99.90;;;;;;4899038;29;20115;-68
2022/07/08 11:12:37;;;;;;;5.57;2.90;;;22.00;99.90;;;;;;4905924;29;20047;-67
2022/07/08 11:15:10;;;;;;;7.25;3.00;;;21.70;99.90;;;;;;4905710;29;20047;-68
2022/07/08 11:17:38;;;;;;;7.22;2.78;;;21.80;99.90;;;;;;4908955;29;20048;-69
2022/07/08 11:20:15;;;;;;;10.70;3.05;;;21.90;99.90;;;;;;4903852;29;20040;-69
2022/07/08 11:22:42;;;;;;;7.53;2.78;;;21.90;99.90;;;;;;4904804;29;20510;-68
2022/07/08 11:25:13;;;;;;;10.88;3.00;;;22.00;99.90;;;;;;4914230;29;20044;-67
2022/07/08 11:27:39;;;;;;;6.38;2.80;;;21.90;99.90;;;;;;4916178;29;20043;-68
2022/07/08 11:30:12;;;;;;;5.55;3.22;;;21.70;99.90;;;;;;4906763;29;20064;-68
2022/07/08 11:32:38;;;;;;;7.22;2.97;;;21.60;99.90;;;;;;4910831;29;20089;-67
2022/07/08 11:35:04;;;;;;;9.98;3.78;;;21.50;99.90;;;;;;4886588;29;20067;-67
2022/07/08 11:37:32;;;;;;;8.82;3.35;;;21.40;99.90;;;;;;4897436;29;20051;-68
2022/07/08 11:39:59;;;;;;;9.07;3.30;;;21.50;99.90;;;;;;4916529;29;20464;-71
2022/07/08 11:42:25;;;;;;;10.82;3.40;;;21.80;99.90;;;;;;4916361;29;20048;-66
2022/07/08 11:44:52;;;;;;;8.05;2.92;;;21.80;99.90;;;;;;4907816;29;20040;-67
2022/07/08 11:47:22;;;;;;;9.65;3.20;;;21.70;99.90;;;;;;4912192;29;20362;-67
2022/07/08 11:49:49;;;;;;;5.93;3.13;;;21.80;99.90;;;;;;4895148;29;20044;-70
2022/07/08 11:52:17;;;;;;;7.93;3.22;;;21.80;99.90;;;;;;4903057;29;20044;-68
2022/07/08 11:54:45;;;;;;;7.07;3.28;;;21.80;99.90;;;;;;4897777;29;20053;-67
2022/07/08 11:57:12;;;;;;;8.05;3.38;;;21.80;99.90;;;;;;4893792;29;20051;-66
2022/07/08 11:59:37;;;;;;;10.07;3.47;;;22.30;99.90;;;;;;4893268;29;20516;-67
2022/07/08 12:02:05;;;;;;;8.35;3.45;;;22.50;99.90;;;;;;4904119;29;20041;-67
2022/07/08 12:04:31;;;;;;;10.40;3.70;;;22.50;99.90;;;;;;4910593;29;20051;-67
2022/07/08 12:06:59;;;;;;;10.63;3.60;;;22.50;99.90;;;;;;4913641;29;20130;-68
2022/07/08 12:09:26;;;;;;;10.90;3.55;;;22.40;99.90;;;;;;4907347;29;20044;-68
2022/07/08 12:11:54;;;;;;;11.05;3.47;;;22.30;99.90;;;;;;4911731;29;20039;-67
2022/07/08 12:14:20;;;;;;;11.40;3.35;;;22.60;99.90;;;;;;4913501;29;20076;-68
2022/07/08 12:16:54;;;;;;;12.25;3.50;;;22.50;99.90;;;;;;4905459;29;20111;-68
2022/07/08 12:19:31;;;;;;;10.30;3.70;;;22.80;99.90;;;;;;4917394;29;20127;-68
2022/07/08 12:22:07;;;;;;;7.10;3.95;;;22.90;99.90;;;;;;4901990;29;20448;-67
2022/07/08 12:24:37;;;;;;;8.70;3.67;;;22.80;99.90;;;;;;4905025;29;20053;-66
2022/07/08 12:27:06;;;;;;;6.38;3.20;;;22.80;99.90;;;;;;4912819;29;20533;-68
2022/07/08 12:29:33;;;;;;;10.38;3.50;;;22.80;99.90;;;;;;4911789;29;20456;-66
2022/07/08 12:31:58;;;;;;;10.73;3.30;;;23.10;99.90;;;;;;4908385;29;20560;-66
2022/07/08 12:34:25;;;;;;;8.95;3.53;;;23.10;99.90;;;;;;4905937;29;20040;-67
2022/07/08 12:36:52;;;;;;;6.63;3.40;;;22.90;99.90;;;;;;4916866;29;20412;-66
2022/07/08 12:39:27;;;;;;;7.13;3.35;;;23.00;99.90;;;;;;4916651;29;20055;-67
2022/07/08 12:42:07;;;;;;;6.78;3.17;;;23.00;99.90;;;;;;4912049;29;20056;-67
2022/07/08 12:44:40;;;;;;;9.93;3.50;;;23.10;99.90;;;;;;4906522;29;20052;-66
2022/07/08 12:47:11;;;;;;;10.35;3.80;;;23.20;99.90;;;;;;4916739;29;20505;-67
2022/07/08 12:49:38;;;;;;;;;;;23.30;99.90;;;;;;4913470;29;20075;-66
2022/07/08 12:52:05;;;;;;;5.53;3.10;;;23.00;99.90;;;;;;4910513;29;19923;-67
2022/07/08 12:54:31;;;;;;;10.10;3.80;;;22.90;99.90;;;;;;4914820;29;20530;-67
2022/07/08 12:56:58;;;;;;;6.57;3.20;;;22.80;99.90;;;;;;4911138;29;20079;-66
2022/07/08 12:59:25;;;;;;;7.45;3.38;;;23.10;99.90;;;;;;4909304;29;20497;-68
2022/07/08 13:01:51;;;;;;;8.15;3.78;;;23.40;99.90;;;;;;4912390;29;20036;-68
2022/07/08 13:04:18;;;;;;;5.88;3.13;;;23.60;99.90;;;;;;4907596;29;20127;-68
2022/07/08 13:06:44;;;;;;;8.02;3.28;;;23.50;99.90;;;;;;4909728;29;20096;-68
2022/07/08 13:09:12;;;;;;;7.47;3.30;;;23.70;99.90;;;;;;4910442;29;20103;-68
2022/07/08 13:11:39;;;;;;;8.52;2.90;;;23.80;99.90;;;;;;4912489;29;20764;-70
2022/07/08 13:14:05;;;;;;;6.85;2.83;;;23.60;99.90;;;;;;4911979;29;20111;-69
2022/07/08 13:16:31;;;;;;;7.22;3.00;;;23.70;99.90;;;;;;4908511;29;20040;-68
2022/07/08 13:18:56;;;;;;;7.07;2.80;;;23.70;99.90;;;;;;4912233;29;20444;-68
2022/07/08 13:21:22;;;;;;;5.95;2.75;;;24.10;99.90;;;;;;4912377;29;20082;-68
2022/07/08 13:23:48;;;;;;;9.30;3.20;;;24.20;99.90;;;;;;4907093;29;20040;-68
2022/07/08 13:26:14;;;;;;;6.45;3.00;;;24.00;99.90;;;;;;4902161;29;20052;-69
2022/07/08 13:28:39;;;;;;;5.50;3.03;;;23.80;99.90;;;;;;4900984;29;20039;-69
2022/07/08 13:31:05;;;;;;;6.80;3.00;;;23.70;99.90;;;;;;4901110;29;20040;-69
2022/07/08 13:33:31;;;;;;;6.68;3.08;;;23.80;99.90;;;;;;4900393;29;20079;-69
2022/07/08 13:35:57;;;;;;;7.72;2.97;;;23.60;99.90;;;;;;4903899;29;20048;-69
2022/07/08 13:38:23;;;;;;;8.52;3.10;;;23.40;99.90;;;;;;4902642;29;20043;-69
2022/07/08 13:40:51;;;;;;;7.03;3.25;;;23.50;99.90;;;;;;4901620;29;20064;-69
2022/07/08 13:43:17;;;;;;;7.47;3.03;;;23.40;99.90;;;;;;4903649;29;20052;-70
2022/07/08 13:45:43;;;;;;;7.35;3.08;;;23.20;99.90;;;;;;4905821;29;20052;-70
2022/07/08 13:48:08;;;;;;;10.02;3.22;;;23.40;99.90;;;;;;4909226;29;20047;-69
2022/07/08 13:50:34;;;;;;;8.15;3.30;;;23.20;99.90;;;;;;4899740;29;20047;-69
2022/07/08 13:53:00;;;;;;;7.80;3.40;;;23.10;99.90;;;;;;4911168;29;20866;-70
2022/07/08 13:55:26;;;;;;;9.30;3.80;;;22.80;99.90;;;;;;4912492;29;20051;-70
2022/07/08 13:57:51;;;;;;;10.13;3.88;;;22.70;99.90;;;;;;4901388;29;20039;-71